Western King — CY7367 — position and weather

sailwx.info

Track history (hours):
 
Tides and Currents Weather Stations Pressure Air Temp Water Temp Dewpoint Dewpoint Depression Visibility Wind Speed Wind Dir Waves Ship Positions

Western King

Last reported at 2017-Nov-07 23:13 UTC. Time now 2017-Nov-25 07:25 UTC.
Position N 50°02' W 125°15'.
Warning: this ship's position is 17 days out of date.

Length 23 m; draft 3.8 m.

Type: Fishing. MMSI: 316003779.

Date/timePositionNaut miles runAvg speedWind from/ knotsBaromVisibWave heightAir tempDewpointWater temp
2017-Nov-07 23:13N 50°02' W 125°15'0 0.4
2017-Nov-07 23:00N 50°02' W 125°15'0 0.0
2017-Nov-07 22:30N 50°02' W 125°15'0 0.0
2017-Nov-07 22:00N 50°02' W 125°15'0 0.0
2017-Nov-07 21:30N 50°02' W 125°15'0 0.2
2017-Nov-07 21:00N 50°02' W 125°15'0 0.0
2017-Nov-07 20:30N 50°02' W 125°15'0 0.0
2017-Nov-07 20:00N 50°02' W 125°15'0 0.0
2017-Nov-07 19:30N 50°02' W 125°15'0 0.0
2017-Nov-07 19:00N 50°02' W 125°15'0 0.0
2017-Nov-07 18:30N 50°02' W 125°15'0 0.0
2017-Nov-07 18:00N 50°02' W 125°15'0 0.0
2017-Nov-07 17:30N 50°02' W 125°15'0 0.0
2017-Nov-07 17:00N 50°02' W 125°15'0 0.0
2017-Nov-07 16:30N 50°02' W 125°15'0 0.0
2017-Nov-07 16:00N 50°02' W 125°15'0 0.0
2017-Nov-07 15:30N 50°02' W 125°15'0 0.0
2017-Nov-07 15:00N 50°02' W 125°15'0 0.0
2017-Nov-07 14:30N 50°02' W 125°15'0 0.0
2017-Nov-07 14:00N 50°02' W 125°15'0 0.0
2017-Nov-07 13:30N 50°02' W 125°15'0 0.0
2017-Nov-07 13:00N 50°02' W 125°15'0 0.0
2017-Nov-07 12:30N 50°02' W 125°15'0 0.0
2017-Nov-07 12:00N 50°02' W 125°15'0 0.0
2017-Nov-07 11:30N 50°02' W 125°15'0 0.0
2017-Nov-07 11:00N 50°02' W 125°15'0 0.0
2017-Nov-07 10:30N 50°02' W 125°15'0 0.0
2017-Nov-07 10:00N 50°02' W 125°15'0 0.0
2017-Nov-07 09:30N 50°02' W 125°15'0 0.0
2017-Nov-07 09:00N 50°02' W 125°15'0 0.0
2017-Nov-07 08:30N 50°02' W 125°15'0 0.0
2017-Nov-07 08:00N 50°02' W 125°15'0 0.0
2017-Nov-07 07:30N 50°02' W 125°15'0 0.0
2017-Nov-07 07:00N 50°02' W 125°15'0 0.0
2017-Nov-07 06:30N 50°02' W 125°15'0 0.0
2017-Nov-07 06:00N 50°02' W 125°15'0 0.0
2017-Nov-07 05:30N 50°02' W 125°15'0 0.0
2017-Nov-07 05:00N 50°02' W 125°15'0 0.0
2017-Nov-07 04:30N 50°02' W 125°15'0 0.0
2017-Nov-07 04:00N 50°02' W 125°15'0 0.0
2017-Nov-07 03:30N 50°02' W 125°15'0 0.0
2017-Nov-07 03:00N 50°02' W 125°15'0 0.0
2017-Nov-07 02:30N 50°02' W 125°15'0 0.0
2017-Nov-07 02:00N 50°02' W 125°15'0 0.2
2017-Nov-07 01:30N 50°02' W 125°15'0 0.0
2017-Nov-07 01:00N 50°02' W 125°15'0 0.0
2017-Nov-07 00:30N 50°02' W 125°15'0 0.0
2017-Nov-07 00:00N 50°02' W 125°15'0 0.0
2017-Nov-06 23:30N 50°02' W 125°15'4 8.5
2017-Nov-06 23:00N 50°06' W 125°17'4 8.7
2017-Nov-06 22:30N 50°10' W 125°21'0 0.5
2017-Nov-06 22:00N 50°10' W 125°20'2 4.3
2017-Nov-06 21:30N 50°12' W 125°21'3 5.5
2017-Nov-06 21:00N 50°14' W 125°24'0 0.9
2017-Nov-06 20:30N 50°15' W 125°24'51 2.8
2017-Nov-06 02:30N 49°34' W 124°37'4 8.1
2017-Nov-06 02:00N 49°31' W 124°33'4 7.6
2017-Nov-06 01:26N 49°27' W 124°29'6 2.8
2017-Nov-05 23:29N 49°23' W 124°24'1 1.1
2017-Nov-05 23:00N 49°23' W 124°25'3 5.7
2017-Nov-05 22:29N 49°24' W 124°29'1 1.7
2017-Nov-05 21:53N 49°24' W 124°30'1 2.6
2017-Nov-05 21:30N 49°25' W 124°32'1 1.2
2017-Nov-05 20:56N 49°25' W 124°32'1 2.0
2017-Nov-05 20:30N 49°25' W 124°34'1 2.2
2017-Nov-05 20:00N 49°26' W 124°35'0 0.1
2017-Nov-05 19:27N 49°26' W 124°35'0 0.1
2017-Nov-05 19:00N 49°26' W 124°35'0 0.4
2017-Nov-05 18:26N 49°26' W 124°35'3 6.0
2017-Nov-05 17:54N 49°28' W 124°39'2 1.5
2017-Nov-05 16:50N 49°29' W 124°41'2 4.7
2017-Nov-05 16:30N 49°29' W 124°43'1 1.4
2017-Nov-05 16:00N 49°28' W 124°44'0 0.0
2017-Nov-05 15:30N 49°28' W 124°44'0 0.0
2017-Nov-05 15:00N 49°28' W 124°44'0 0.0
2017-Nov-05 14:30N 49°28' W 124°44'0 0.0
2017-Nov-05 14:00N 49°28' W 124°44'0 0.0
2017-Nov-05 13:30N 49°28' W 124°44'0 0.0
2017-Nov-05 13:00N 49°28' W 124°44'0 0.0
2017-Nov-05 12:30N 49°28' W 124°44'0 0.0
2017-Nov-05 11:57N 49°28' W 124°44'0 0.0
2017-Nov-05 11:27N 49°28' W 124°44'0 0.0
2017-Nov-05 11:00N 49°28' W 124°44'0 0.0
2017-Nov-05 10:30N 49°28' W 124°44'0 0.0
2017-Nov-05 09:52N 49°28' W 124°44'0 0.0
2017-Nov-05 09:28N 49°28' W 124°44'0 0.0
2017-Nov-05 08:59N 49°28' W 124°44'0 0.0
2017-Nov-05 08:29N 49°28' W 124°44'0 0.0
2017-Nov-05 07:57N 49°28' W 124°44'0 0.0
2017-Nov-05 07:29N 49°28' W 124°44'0 0.0
2017-Nov-05 07:00N 49°28' W 124°44'0 0.0
2017-Nov-05 06:30N 49°28' W 124°44'0 0.0
2017-Nov-05 05:57N 49°28' W 124°44'0 0.0
2017-Nov-05 05:30N 49°28' W 124°44'0 0.0
2017-Nov-05 04:59N 49°28' W 124°44'0 0.0
2017-Nov-05 04:25N 49°28' W 124°44'0 0.0
2017-Nov-05 03:44N 49°28' W 124°44'0 0.0
2017-Nov-05 03:30N 49°28' W 124°44'0 0.0
2017-Nov-05 03:00N 49°28' W 124°44'0 0.0
2017-Nov-05 02:30N 49°28' W 124°44'0 0.0
2017-Nov-05 02:00N 49°28' W 124°44'0 0.0
2017-Nov-05 01:17N 49°28' W 124°44'0 0.0
2017-Nov-05 00:58N 49°28' W 124°44'0 0.0
2017-Nov-05 00:30N 49°28' W 124°44'1 1.6
2017-Nov-04 23:59N 49°29' W 124°43'4 7.4
2017-Nov-04 23:28N 49°26' W 124°38'3 6.6
2017-Nov-04 23:00N 49°24' W 124°35'3 6.9
2017-Nov-04 22:30N 49°22' W 124°30'2 3.0
2017-Nov-04 21:54N 49°22' W 124°27'3 6.5
2017-Nov-04 21:27N 49°23' W 124°32'3 6.7
2017-Nov-04 20:59N 49°25' W 124°35'2 4.4
2017-Nov-04 20:30N 49°27' W 124°36'0 0.8
2017-Nov-04 20:00N 49°27' W 124°36'0 0.7
2017-Nov-04 19:30N 49°26' W 124°36'0 0.1
2017-Nov-04 19:00N 49°26' W 124°36'2 4.2
2017-Nov-04 18:31N 49°25' W 124°33'1 1.7
2017-Nov-04 18:00N 49°25' W 124°32'3 5.5
2017-Nov-04 17:30N 49°26' W 124°36'4 6.3
2017-Nov-04 16:56N 49°23' W 124°32'3 6.1
2017-Nov-04 16:29N 49°23' W 124°28'2 4.7
2017-Nov-04 16:00N 49°23' W 124°24'4 6.5
2017-Nov-04 15:24N 49°23' W 124°30'2 4.5
2017-Nov-04 14:56N 49°25' W 124°31'3 5.0
2017-Nov-04 14:19N 49°26' W 124°35'2 7.0
2017-Nov-04 14:00N 49°28' W 124°37'2 4.3
2017-Nov-04 13:28N 49°29' W 124°34'3 4.7
2017-Nov-04 12:56N 49°31' W 124°33'3 7.7
2017-Nov-04 12:30N 49°33' W 124°37'4 7.8
2017-Nov-04 12:00N 49°36' W 124°42'4 7.8
2017-Nov-04 11:30N 49°39' W 124°45'4 7.5
2017-Nov-04 11:00N 49°42' W 124°48'4 7.5
2017-Nov-04 10:30N 49°46' W 124°51'4 7.4
2017-Nov-04 10:00N 49°48' W 124°55'4 7.2
2017-Nov-04 09:30N 49°50' W 124°59'4 7.6
2017-Nov-04 09:00N 49°53' W 125°03'4 6.9
2017-Nov-04 08:30N 49°56' W 125°07'3 5.8
2017-Nov-04 08:00N 49°58' W 125°10'510.5
2017-Nov-04 07:31N 50°02' W 125°15'0 0.3
2017-Nov-04 07:00N 50°02' W 125°15'0 0.0
2017-Nov-04 06:30N 50°02' W 125°15'0 0.0
2017-Nov-04 06:00N 50°02' W 125°15'0 0.0
2017-Nov-04 05:30N 50°02' W 125°15'0 0.0
2017-Nov-04 05:00N 50°02' W 125°15'0 0.0
2017-Nov-04 04:30N 50°02' W 125°15'0 0.0
2017-Nov-04 04:00N 50°02' W 125°15'0 0.0
2017-Nov-04 03:30N 50°02' W 125°15'0 0.0
2017-Nov-04 03:00N 50°02' W 125°15'0 0.0
2017-Nov-04 02:30N 50°02' W 125°15'0 0.0
2017-Nov-04 02:00N 50°02' W 125°15'0 0.0
2017-Nov-04 01:30N 50°02' W 125°15'0 0.0
2017-Nov-04 01:00N 50°02' W 125°15'0 0.0
2017-Nov-04 00:30N 50°02' W 125°15'0 0.2
2017-Nov-04 00:00N 50°02' W 125°15'0 0.0
2017-Nov-03 23:30N 50°02' W 125°15'0 0.0
2017-Nov-03 23:00N 50°02' W 125°15'0 0.0
2017-Nov-03 22:30N 50°02' W 125°15'0 0.0
2017-Nov-03 22:00N 50°02' W 125°15'0 0.2
2017-Nov-03 21:30N 50°02' W 125°15'0 0.0
2017-Nov-03 21:00N 50°02' W 125°15'0 0.0
2017-Nov-03 20:30N 50°02' W 125°15'0 0.0
2017-Nov-03 20:00N 50°02' W 125°15'0 0.0
2017-Nov-03 19:30N 50°02' W 125°15'0 0.0
2017-Nov-03 19:00N 50°02' W 125°15'0 0.0
2017-Nov-03 18:30N 50°02' W 125°15'0 0.0
2017-Nov-03 18:00N 50°02' W 125°15'0 0.0
2017-Nov-03 17:30N 50°02' W 125°15'0 0.0
2017-Nov-03 17:00N 50°02' W 125°15'0 0.0
2017-Nov-03 16:30N 50°02' W 125°15'0 0.0
2017-Nov-03 16:00N 50°02' W 125°15'0 0.0
2017-Nov-03 15:30N 50°02' W 125°15'0 0.0
2017-Nov-03 15:00N 50°02' W 125°15'0 0.0
2017-Nov-03 14:30N 50°02' W 125°15'0 0.0
2017-Nov-03 14:00N 50°02' W 125°15'0 0.0
2017-Nov-03 13:30N 50°02' W 125°15'0 0.0
2017-Nov-03 13:00N 50°02' W 125°15'0 0.0
2017-Nov-03 12:30N 50°02' W 125°15'0 0.0
2017-Nov-03 12:00N 50°02' W 125°15'0 0.0
2017-Nov-03 11:30N 50°02' W 125°15'0 0.0
2017-Nov-03 11:00N 50°02' W 125°15'0 0.0
2017-Nov-03 10:30N 50°02' W 125°15'0 0.0
2017-Nov-03 10:00N 50°02' W 125°15'0 0.0
2017-Nov-03 09:31N 50°02' W 125°15'0 0.0
2017-Nov-03 09:00N 50°02' W 125°15'0 0.0
2017-Nov-03 08:31N 50°02' W 125°15'0 0.0
2017-Nov-03 08:00N 50°02' W 125°15'0 0.0
2017-Nov-03 07:30N 50°02' W 125°15'0 0.0
2017-Nov-03 07:00N 50°02' W 125°15'0 0.0
2017-Nov-03 06:30N 50°02' W 125°15'0 0.0
2017-Nov-03 06:00N 50°02' W 125°15'0 0.0
2017-Nov-03 05:30N 50°02' W 125°15'0 0.0
2017-Nov-03 05:00N 50°02' W 125°15'0 0.0
2017-Nov-03 04:30N 50°02' W 125°15'0 0.0
2017-Nov-03 04:00N 50°02' W 125°15'0 0.0
2017-Nov-03 03:30N 50°02' W 125°15'0 0.0
2017-Nov-03 03:01N 50°02' W 125°15'0 0.0
2017-Nov-03 02:30N 50°02' W 125°15'0 0.0
2017-Nov-03 02:00N 50°02' W 125°15'0 0.0
2017-Nov-03 01:30N 50°02' W 125°15'0 0.0
2017-Nov-03 01:00N 50°02' W 125°15'0 0.0
2017-Nov-03 00:30N 50°02' W 125°15'0 0.2
2017-Nov-03 00:00N 50°02' W 125°15'0 0.0
2017-Nov-02 23:30N 50°02' W 125°15'0 0.0
2017-Nov-02 23:00N 50°02' W 125°15'0 0.0
2017-Nov-02 22:30N 50°02' W 125°15'0 0.0
2017-Nov-02 22:00N 50°02' W 125°15'0 0.0
2017-Nov-02 21:30N 50°02' W 125°15'0 0.0
2017-Nov-02 21:00N 50°02' W 125°15'0 0.0
2017-Nov-02 20:30N 50°02' W 125°15'0 0.0
2017-Nov-02 20:00N 50°02' W 125°15'0 0.0
2017-Nov-02 19:30N 50°02' W 125°15'0 0.0
2017-Nov-02 19:00N 50°02' W 125°15'0 0.1
2017-Nov-02 18:30N 50°02' W 125°15'2 4.8
2017-Nov-02 18:00N 50°04' W 125°16'5 9.4
2017-Nov-02 17:30N 50°08' W 125°21'5 9.0
2017-Nov-02 17:00N 50°12' W 125°23'4 7.7
2017-Nov-02 16:28N 50°16' W 125°25'4 7.6
2017-Nov-02 15:59N 50°20' W 125°26'14 7.3
2017-Nov-02 14:05N 50°23' W 125°48'31 7.4
2017-Nov-02 09:56N 50°30' W 126°35'4 8.4
2017-Nov-02 09:28N 50°31' W 126°40'4 8.6
2017-Nov-02 09:00N 50°33' W 126°46'6 9.5
2017-Nov-02 08:24N 50°34' W 126°55'510.6
2017-Nov-02 07:58N 50°36' W 127°02'5 9.8
2017-Nov-02 07:30N 50°37' W 127°09'5 9.7
2017-Nov-02 06:58N 50°40' W 127°15'5 9.5
2017-Nov-02 06:25N 50°44' W 127°21'4 9.2
2017-Nov-02 06:00N 50°45' W 127°27'3 5.6
2017-Nov-02 05:30N 50°43' W 127°29'0 0.0
2017-Nov-02 05:00N 50°43' W 127°29'0 0.0
2017-Nov-02 04:30N 50°43' W 127°29'0 0.0
2017-Nov-02 04:00N 50°43' W 127°29'0 0.0
2017-Nov-02 03:30N 50°43' W 127°29'0 0.1
2017-Nov-02 00:46N 50°43' W 127°29'0 1.1
2017-Nov-02 00:29N 50°43' W 127°29'0 0.0
2017-Nov-02 00:00N 50°43' W 127°29'0 0.0
2017-Nov-01 19:52N 50°43' W 127°29'0 0.0
2017-Nov-01 19:30N 50°43' W 127°29'0 0.0
2017-Nov-01 19:00N 50°43' W 127°29'3 6.3
2017-Nov-01 18:30N 50°46' W 127°29'102 3.6
2017-Oct-31 14:03N 52°17' W 128°42'0 1.0
2017-Oct-31 14:00N 52°17' W 128°42'2 4.2
2017-Oct-31 13:30N 52°15' W 128°41'2 3.2
2017-Oct-31 13:00N 52°13' W 128°41'2 3.8
2017-Oct-31 12:30N 52°12' W 128°43'1 1.9
2017-Oct-31 12:00N 52°13' W 128°42'2 3.1
2017-Oct-31 11:30N 52°14' W 128°44'3 5.4
2017-Oct-31 11:00N 52°13' W 128°48'4 7.2
2017-Oct-31 10:30N 52°12' W 128°54'4 7.2
2017-Oct-31 10:00N 52°11' W 128°60'4 7.3
2017-Oct-31 09:30N 52°10' W 129°05'3 7.0
2017-Oct-31 09:01N 52°10' W 129°11'3 6.7
2017-Oct-31 08:30N 52°09' W 129°16'3 6.4
2017-Oct-31 08:00N 52°06' W 129°19'4 7.2
2017-Oct-31 07:30N 52°04' W 129°23'4 7.3
2017-Oct-31 07:00N 52°02' W 129°28'4 7.4
2017-Oct-31 06:30N 51°60' W 129°33'4 7.5
2017-Oct-31 06:01N 51°58' W 129°38'4 7.8
2017-Oct-31 05:30N 51°57' W 129°44'4 8.4
2017-Oct-31 05:00N 51°58' W 129°51'4 8.7
2017-Oct-31 04:30N 51°59' W 129°58'4 8.3
2017-Oct-31 04:00N 51°59' W 130°05'4 8.4
2017-Oct-31 03:30N 51°58' W 130°11'4 8.3
2017-Oct-31 03:00N 51°57' W 130°18'4 8.2
2017-Oct-31 02:31N 51°56' W 130°24'4 8.0
2017-Oct-31 02:00N 51°54' W 130°30'2 3.3
2017-Oct-31 01:30N 51°53' W 130°32'1 1.4
2017-Oct-31 01:00N 51°52' W 130°33'2 3.4
2017-Oct-31 00:31N 51°52' W 130°30'1 2.5
2017-Oct-31 00:00N 51°53' W 130°28'1 1.8
2017-Oct-30 23:31N 51°52' W 130°29'1 1.6
2017-Oct-30 23:00N 51°52' W 130°28'1 1.8
2017-Oct-30 22:30N 51°52' W 130°27'1 1.5
2017-Oct-30 22:00N 51°52' W 130°27'2 2.4
2017-Oct-30 21:13N 51°52' W 130°30'3 0.8
2017-Oct-30 16:41N 51°50' W 130°34'6 2.3
2017-Oct-30 14:10N 51°53' W 130°27'2 2.9
2017-Oct-30 13:30N 51°52' W 130°28'1 1.7
2017-Oct-30 13:00N 51°52' W 130°29'3 4.8
2017-Oct-30 12:17N 51°49' W 130°31'1 3.4
2017-Oct-30 11:59N 51°50' W 130°30'3 4.6
2017-Oct-30 11:16N 51°53' W 130°29'24 0.8
2017-Oct-29 04:50N 52°04' W 131°04'0 0.0
2017-Oct-29 04:29N 52°04' W 131°04'0 0.0
2017-Oct-29 03:50N 52°04' W 131°04'  
Track history (hours):
 
Tides and Currents Weather Stations Pressure Air Temp Water Temp Dewpoint Dewpoint Depression Visibility Wind Speed Wind Dir Waves Ship Positions

Western King

Last reported at 2017-Nov-07 23:13 UTC. Time now 2017-Nov-25 07:25 UTC.
Position N 50°02' W 125°15'.
Warning: this ship's position is 17 days out of date.

Length 23 m; draft 3.8 m.

Type: Fishing. MMSI: 316003779.

Date/timePositionNaut miles runAvg speedWind from/ knotsBaromVisibWave heightAir tempDewpointWater temp
2017-Nov-07 23:13N 50°02' W 125°15'0 0.4
2017-Nov-07 23:00N 50°02' W 125°15'0 0.0
2017-Nov-07 22:30N 50°02' W 125°15'0 0.0
2017-Nov-07 22:00N 50°02' W 125°15'0 0.0
2017-Nov-07 21:30N 50°02' W 125°15'0 0.2
2017-Nov-07 21:00N 50°02' W 125°15'0 0.0
2017-Nov-07 20:30N 50°02' W 125°15'0 0.0
2017-Nov-07 20:00N 50°02' W 125°15'0 0.0
2017-Nov-07 19:30N 50°02' W 125°15'0 0.0
2017-Nov-07 19:00N 50°02' W 125°15'0 0.0
2017-Nov-07 18:30N 50°02' W 125°15'0 0.0
2017-Nov-07 18:00N 50°02' W 125°15'0 0.0
2017-Nov-07 17:30N 50°02' W 125°15'0 0.0
2017-Nov-07 17:00N 50°02' W 125°15'0 0.0
2017-Nov-07 16:30N 50°02' W 125°15'0 0.0
2017-Nov-07 16:00N 50°02' W 125°15'0 0.0
2017-Nov-07 15:30N 50°02' W 125°15'0 0.0
2017-Nov-07 15:00N 50°02' W 125°15'0 0.0
2017-Nov-07 14:30N 50°02' W 125°15'0 0.0
2017-Nov-07 14:00N 50°02' W 125°15'0 0.0
2017-Nov-07 13:30N 50°02' W 125°15'0 0.0
2017-Nov-07 13:00N 50°02' W 125°15'0 0.0
2017-Nov-07 12:30N 50°02' W 125°15'0 0.0
2017-Nov-07 12:00N 50°02' W 125°15'0 0.0
2017-Nov-07 11:30N 50°02' W 125°15'0 0.0
2017-Nov-07 11:00N 50°02' W 125°15'0 0.0
2017-Nov-07 10:30N 50°02' W 125°15'0 0.0
2017-Nov-07 10:00N 50°02' W 125°15'0 0.0
2017-Nov-07 09:30N 50°02' W 125°15'0 0.0
2017-Nov-07 09:00N 50°02' W 125°15'0 0.0
2017-Nov-07 08:30N 50°02' W 125°15'0 0.0
2017-Nov-07 08:00N 50°02' W 125°15'0 0.0
2017-Nov-07 07:30N 50°02' W 125°15'0 0.0
2017-Nov-07 07:00N 50°02' W 125°15'0 0.0
2017-Nov-07 06:30N 50°02' W 125°15'0 0.0
2017-Nov-07 06:00N 50°02' W 125°15'0 0.0
2017-Nov-07 05:30N 50°02' W 125°15'0 0.0
2017-Nov-07 05:00N 50°02' W 125°15'0 0.0
2017-Nov-07 04:30N 50°02' W 125°15'0 0.0
2017-Nov-07 04:00N 50°02' W 125°15'0 0.0
2017-Nov-07 03:30N 50°02' W 125°15'0 0.0
2017-Nov-07 03:00N 50°02' W 125°15'0 0.0
2017-Nov-07 02:30N 50°02' W 125°15'0 0.0
2017-Nov-07 02:00N 50°02' W 125°15'0 0.2
2017-Nov-07 01:30N 50°02' W 125°15'0 0.0
2017-Nov-07 01:00N 50°02' W 125°15'0 0.0
2017-Nov-07 00:30N 50°02' W 125°15'0 0.0
2017-Nov-07 00:00N 50°02' W 125°15'0 0.0
2017-Nov-06 23:30N 50°02' W 125°15'4 8.5
2017-Nov-06 23:00N 50°06' W 125°17'4 8.7
2017-Nov-06 22:30N 50°10' W 125°21'0 0.5
2017-Nov-06 22:00N 50°10' W 125°20'2 4.3
2017-Nov-06 21:30N 50°12' W 125°21'3 5.5
2017-Nov-06 21:00N 50°14' W 125°24'0 0.9
2017-Nov-06 20:30N 50°15' W 125°24'51 2.8
2017-Nov-06 02:30N 49°34' W 124°37'4 8.1
2017-Nov-06 02:00N 49°31' W 124°33'4 7.6
2017-Nov-06 01:26N 49°27' W 124°29'6 2.8
2017-Nov-05 23:29N 49°23' W 124°24'1 1.1
2017-Nov-05 23:00N 49°23' W 124°25'3 5.7
2017-Nov-05 22:29N 49°24' W 124°29'1 1.7
2017-Nov-05 21:53N 49°24' W 124°30'1 2.6
2017-Nov-05 21:30N 49°25' W 124°32'1 1.2
2017-Nov-05 20:56N 49°25' W 124°32'1 2.0
2017-Nov-05 20:30N 49°25' W 124°34'1 2.2
2017-Nov-05 20:00N 49°26' W 124°35'0 0.1
2017-Nov-05 19:27N 49°26' W 124°35'0 0.1
2017-Nov-05 19:00N 49°26' W 124°35'0 0.4
2017-Nov-05 18:26N 49°26' W 124°35'3 6.0
2017-Nov-05 17:54N 49°28' W 124°39'2 1.5
2017-Nov-05 16:50N 49°29' W 124°41'2 4.7
2017-Nov-05 16:30N 49°29' W 124°43'1 1.4
2017-Nov-05 16:00N 49°28' W 124°44'0 0.0
2017-Nov-05 15:30N 49°28' W 124°44'0 0.0
2017-Nov-05 15:00N 49°28' W 124°44'0 0.0
2017-Nov-05 14:30N 49°28' W 124°44'0 0.0
2017-Nov-05 14:00N 49°28' W 124°44'0 0.0
2017-Nov-05 13:30N 49°28' W 124°44'0 0.0
2017-Nov-05 13:00N 49°28' W 124°44'0 0.0
2017-Nov-05 12:30N 49°28' W 124°44'0 0.0
2017-Nov-05 11:57N 49°28' W 124°44'0 0.0
2017-Nov-05 11:27N 49°28' W 124°44'0 0.0
2017-Nov-05 11:00N 49°28' W 124°44'0 0.0
2017-Nov-05 10:30N 49°28' W 124°44'0 0.0
2017-Nov-05 09:52N 49°28' W 124°44'0 0.0
2017-Nov-05 09:28N 49°28' W 124°44'0 0.0
2017-Nov-05 08:59N 49°28' W 124°44'0 0.0
2017-Nov-05 08:29N 49°28' W 124°44'0 0.0
2017-Nov-05 07:57N 49°28' W 124°44'0 0.0
2017-Nov-05 07:29N 49°28' W 124°44'0 0.0
2017-Nov-05 07:00N 49°28' W 124°44'0 0.0
2017-Nov-05 06:30N 49°28' W 124°44'0 0.0
2017-Nov-05 05:57N 49°28' W 124°44'0 0.0
2017-Nov-05 05:30N 49°28' W 124°44'0 0.0
2017-Nov-05 04:59N 49°28' W 124°44'0 0.0
2017-Nov-05 04:25N 49°28' W 124°44'0 0.0
2017-Nov-05 03:44N 49°28' W 124°44'0 0.0
2017-Nov-05 03:30N 49°28' W 124°44'0 0.0
2017-Nov-05 03:00N 49°28' W 124°44'0 0.0
2017-Nov-05 02:30N 49°28' W 124°44'0 0.0
2017-Nov-05 02:00N 49°28' W 124°44'0 0.0
2017-Nov-05 01:17N 49°28' W 124°44'0 0.0
2017-Nov-05 00:58N 49°28' W 124°44'0 0.0
2017-Nov-05 00:30N 49°28' W 124°44'1 1.6
2017-Nov-04 23:59N 49°29' W 124°43'4 7.4
2017-Nov-04 23:28N 49°26' W 124°38'3 6.6
2017-Nov-04 23:00N 49°24' W 124°35'3 6.9
2017-Nov-04 22:30N 49°22' W 124°30'2 3.0
2017-Nov-04 21:54N 49°22' W 124°27'3 6.5
2017-Nov-04 21:27N 49°23' W 124°32'3 6.7
2017-Nov-04 20:59N 49°25' W 124°35'2 4.4
2017-Nov-04 20:30N 49°27' W 124°36'0 0.8
2017-Nov-04 20:00N 49°27' W 124°36'0 0.7
2017-Nov-04 19:30N 49°26' W 124°36'0 0.1
2017-Nov-04 19:00N 49°26' W 124°36'2 4.2
2017-Nov-04 18:31N 49°25' W 124°33'1 1.7
2017-Nov-04 18:00N 49°25' W 124°32'3 5.5
2017-Nov-04 17:30N 49°26' W 124°36'4 6.3
2017-Nov-04 16:56N 49°23' W 124°32'3 6.1
2017-Nov-04 16:29N 49°23' W 124°28'2 4.7
2017-Nov-04 16:00N 49°23' W 124°24'4 6.5
2017-Nov-04 15:24N 49°23' W 124°30'2 4.5
2017-Nov-04 14:56N 49°25' W 124°31'3 5.0
2017-Nov-04 14:19N 49°26' W 124°35'2 7.0
2017-Nov-04 14:00N 49°28' W 124°37'2 4.3
2017-Nov-04 13:28N 49°29' W 124°34'3 4.7
2017-Nov-04 12:56N 49°31' W 124°33'3 7.7
2017-Nov-04 12:30N 49°33' W 124°37'4 7.8
2017-Nov-04 12:00N 49°36' W 124°42'4 7.8
2017-Nov-04 11:30N 49°39' W 124°45'4 7.5
2017-Nov-04 11:00N 49°42' W 124°48'4 7.5
2017-Nov-04 10:30N 49°46' W 124°51'4 7.4
2017-Nov-04 10:00N 49°48' W 124°55'4 7.2
2017-Nov-04 09:30N 49°50' W 124°59'4 7.6
2017-Nov-04 09:00N 49°53' W 125°03'4 6.9
2017-Nov-04 08:30N 49°56' W 125°07'3 5.8
2017-Nov-04 08:00N 49°58' W 125°10'510.5
2017-Nov-04 07:31N 50°02' W 125°15'0 0.3
2017-Nov-04 07:00N 50°02' W 125°15'0 0.0
2017-Nov-04 06:30N 50°02' W 125°15'0 0.0
2017-Nov-04 06:00N 50°02' W 125°15'0 0.0
2017-Nov-04 05:30N 50°02' W 125°15'0 0.0
2017-Nov-04 05:00N 50°02' W 125°15'0 0.0
2017-Nov-04 04:30N 50°02' W 125°15'0 0.0
2017-Nov-04 04:00N 50°02' W 125°15'0 0.0
2017-Nov-04 03:30N 50°02' W 125°15'0 0.0
2017-Nov-04 03:00N 50°02' W 125°15'0 0.0
2017-Nov-04 02:30N 50°02' W 125°15'0 0.0
2017-Nov-04 02:00N 50°02' W 125°15'0 0.0
2017-Nov-04 01:30N 50°02' W 125°15'0 0.0
2017-Nov-04 01:00N 50°02' W 125°15'0 0.0
2017-Nov-04 00:30N 50°02' W 125°15'0 0.2
2017-Nov-04 00:00N 50°02' W 125°15'0 0.0
2017-Nov-03 23:30N 50°02' W 125°15'0 0.0
2017-Nov-03 23:00N 50°02' W 125°15'0 0.0
2017-Nov-03 22:30N 50°02' W 125°15'0 0.0
2017-Nov-03 22:00N 50°02' W 125°15'0 0.2
2017-Nov-03 21:30N 50°02' W 125°15'0 0.0
2017-Nov-03 21:00N 50°02' W 125°15'0 0.0
2017-Nov-03 20:30N 50°02' W 125°15'0 0.0
2017-Nov-03 20:00N 50°02' W 125°15'0 0.0
2017-Nov-03 19:30N 50°02' W 125°15'0 0.0
2017-Nov-03 19:00N 50°02' W 125°15'0 0.0
2017-Nov-03 18:30N 50°02' W 125°15'0 0.0
2017-Nov-03 18:00N 50°02' W 125°15'0 0.0
2017-Nov-03 17:30N 50°02' W 125°15'0 0.0
2017-Nov-03 17:00N 50°02' W 125°15'0 0.0
2017-Nov-03 16:30N 50°02' W 125°15'0 0.0
2017-Nov-03 16:00N 50°02' W 125°15'0 0.0
2017-Nov-03 15:30N 50°02' W 125°15'0 0.0
2017-Nov-03 15:00N 50°02' W 125°15'0 0.0
2017-Nov-03 14:30N 50°02' W 125°15'0 0.0
2017-Nov-03 14:00N 50°02' W 125°15'0 0.0
2017-Nov-03 13:30N 50°02' W 125°15'0 0.0
2017-Nov-03 13:00N 50°02' W 125°15'0 0.0
2017-Nov-03 12:30N 50°02' W 125°15'0 0.0
2017-Nov-03 12:00N 50°02' W 125°15'0 0.0
2017-Nov-03 11:30N 50°02' W 125°15'0 0.0
2017-Nov-03 11:00N 50°02' W 125°15'0 0.0
2017-Nov-03 10:30N 50°02' W 125°15'0 0.0
2017-Nov-03 10:00N 50°02' W 125°15'0 0.0
2017-Nov-03 09:31N 50°02' W 125°15'0 0.0
2017-Nov-03 09:00N 50°02' W 125°15'0 0.0
2017-Nov-03 08:31N 50°02' W 125°15'0 0.0
2017-Nov-03 08:00N 50°02' W 125°15'0 0.0
2017-Nov-03 07:30N 50°02' W 125°15'0 0.0
2017-Nov-03 07:00N 50°02' W 125°15'0 0.0
2017-Nov-03 06:30N 50°02' W 125°15'0 0.0
2017-Nov-03 06:00N 50°02' W 125°15'0 0.0
2017-Nov-03 05:30N 50°02' W 125°15'0 0.0
2017-Nov-03 05:00N 50°02' W 125°15'0 0.0
2017-Nov-03 04:30N 50°02' W 125°15'0 0.0
2017-Nov-03 04:00N 50°02' W 125°15'0 0.0
2017-Nov-03 03:30N 50°02' W 125°15'0 0.0
2017-Nov-03 03:01N 50°02' W 125°15'0 0.0
2017-Nov-03 02:30N 50°02' W 125°15'0 0.0
2017-Nov-03 02:00N 50°02' W 125°15'0 0.0
2017-Nov-03 01:30N 50°02' W 125°15'0 0.0
2017-Nov-03 01:00N 50°02' W 125°15'0 0.0
2017-Nov-03 00:30N 50°02' W 125°15'0 0.2
2017-Nov-03 00:00N 50°02' W 125°15'0 0.0
2017-Nov-02 23:30N 50°02' W 125°15'0 0.0
2017-Nov-02 23:00N 50°02' W 125°15'0 0.0
2017-Nov-02 22:30N 50°02' W 125°15'0 0.0
2017-Nov-02 22:00N 50°02' W 125°15'0 0.0
2017-Nov-02 21:30N 50°02' W 125°15'0 0.0
2017-Nov-02 21:00N 50°02' W 125°15'0 0.0
2017-Nov-02 20:30N 50°02' W 125°15'0 0.0
2017-Nov-02 20:00N 50°02' W 125°15'0 0.0
2017-Nov-02 19:30N 50°02' W 125°15'0 0.0
2017-Nov-02 19:00N 50°02' W 125°15'0 0.1
2017-Nov-02 18:30N 50°02' W 125°15'2 4.8
2017-Nov-02 18:00N 50°04' W 125°16'5 9.4
2017-Nov-02 17:30N 50°08' W 125°21'5 9.0
2017-Nov-02 17:00N 50°12' W 125°23'4 7.7
2017-Nov-02 16:28N 50°16' W 125°25'4 7.6
2017-Nov-02 15:59N 50°20' W 125°26'14 7.3
2017-Nov-02 14:05N 50°23' W 125°48'31 7.4
2017-Nov-02 09:56N 50°30' W 126°35'4 8.4
2017-Nov-02 09:28N 50°31' W 126°40'4 8.6
2017-Nov-02 09:00N 50°33' W 126°46'6 9.5
2017-Nov-02 08:24N 50°34' W 126°55'510.6
2017-Nov-02 07:58N 50°36' W 127°02'5 9.8
2017-Nov-02 07:30N 50°37' W 127°09'5 9.7
2017-Nov-02 06:58N 50°40' W 127°15'5 9.5
2017-Nov-02 06:25N 50°44' W 127°21'4 9.2
2017-Nov-02 06:00N 50°45' W 127°27'3 5.6
2017-Nov-02 05:30N 50°43' W 127°29'0 0.0
2017-Nov-02 05:00N 50°43' W 127°29'0 0.0
2017-Nov-02 04:30N 50°43' W 127°29'0 0.0
2017-Nov-02 04:00N 50°43' W 127°29'0 0.0
2017-Nov-02 03:30N 50°43' W 127°29'0 0.1
2017-Nov-02 00:46N 50°43' W 127°29'0 1.1
2017-Nov-02 00:29N 50°43' W 127°29'0 0.0
2017-Nov-02 00:00N 50°43' W 127°29'0 0.0
2017-Nov-01 19:52N 50°43' W 127°29'0 0.0
2017-Nov-01 19:30N 50°43' W 127°29'0 0.0
2017-Nov-01 19:00N 50°43' W 127°29'3 6.3
2017-Nov-01 18:30N 50°46' W 127°29'102 3.6
2017-Oct-31 14:03N 52°17' W 128°42'0 1.0
2017-Oct-31 14:00N 52°17' W 128°42'2 4.2
2017-Oct-31 13:30N 52°15' W 128°41'2 3.2
2017-Oct-31 13:00N 52°13' W 128°41'2 3.8
2017-Oct-31 12:30N 52°12' W 128°43'1 1.9
2017-Oct-31 12:00N 52°13' W 128°42'2 3.1
2017-Oct-31 11:30N 52°14' W 128°44'3 5.4
2017-Oct-31 11:00N 52°13' W 128°48'4 7.2
2017-Oct-31 10:30N 52°12' W 128°54'4 7.2
2017-Oct-31 10:00N 52°11' W 128°60'4 7.3
2017-Oct-31 09:30N 52°10' W 129°05'3 7.0
2017-Oct-31 09:01N 52°10' W 129°11'3 6.7
2017-Oct-31 08:30N 52°09' W 129°16'3 6.4
2017-Oct-31 08:00N 52°06' W 129°19'4 7.2
2017-Oct-31 07:30N 52°04' W 129°23'4 7.3
2017-Oct-31 07:00N 52°02' W 129°28'4 7.4
2017-Oct-31 06:30N 51°60' W 129°33'4 7.5
2017-Oct-31 06:01N 51°58' W 129°38'4 7.8
2017-Oct-31 05:30N 51°57' W 129°44'4 8.4
2017-Oct-31 05:00N 51°58' W 129°51'4 8.7
2017-Oct-31 04:30N 51°59' W 129°58'4 8.3
2017-Oct-31 04:00N 51°59' W 130°05'4 8.4
2017-Oct-31 03:30N 51°58' W 130°11'4 8.3
2017-Oct-31 03:00N 51°57' W 130°18'4 8.2
2017-Oct-31 02:31N 51°56' W 130°24'4 8.0
2017-Oct-31 02:00N 51°54' W 130°30'2 3.3
2017-Oct-31 01:30N 51°53' W 130°32'1 1.4
2017-Oct-31 01:00N 51°52' W 130°33'2 3.4
2017-Oct-31 00:31N 51°52' W 130°30'1 2.5
2017-Oct-31 00:00N 51°53' W 130°28'1 1.8
2017-Oct-30 23:31N 51°52' W 130°29'1 1.6
2017-Oct-30 23:00N 51°52' W 130°28'1 1.8
2017-Oct-30 22:30N 51°52' W 130°27'1 1.5
2017-Oct-30 22:00N 51°52' W 130°27'2 2.4
2017-Oct-30 21:13N 51°52' W 130°30'3 0.8
2017-Oct-30 16:41N 51°50' W 130°34'6 2.3
2017-Oct-30 14:10N 51°53' W 130°27'2 2.9
2017-Oct-30 13:30N 51°52' W 130°28'1 1.7
2017-Oct-30 13:00N 51°52' W 130°29'3 4.8
2017-Oct-30 12:17N 51°49' W 130°31'1 3.4
2017-Oct-30 11:59N 51°50' W 130°30'3 4.6
2017-Oct-30 11:16N 51°53' W 130°29'24 0.8
2017-Oct-29 04:50N 52°04' W 131°04'0 0.0
2017-Oct-29 04:29N 52°04' W 131°04'0 0.0
2017-Oct-29 03:50N 52°04' W 131°04'  

Dump ship's entire track history